Latest Weather Observations for Green Cape

IDN60801

Issued at 3:52 pm EDT Tuesday 18 January 2022 (issued every 10 minutes, with the page automatically refreshed every 10 minutes)

About weather observations | Map of weather stations | Latest weather observations for NSW | Other Formats
Station Details ID: 069137 Name: GREEN CAPE AWS Lat: -37.26 Lon: 150.05 Height: 19.4 m
Data from the previous 72 hours. | See also: Recent months at Green Cape
Date/Time
EDT
Temp
°C
App
Temp
°C
Dew
Point
°C
Rel
Hum
%
Delta-T
°C
Wind Press
QNH
hPa
Press
MSL
hPa
Rain since
9am
mm
Dir  Spd
km/h
Gust
km/h
Spd
kts
Gust
kts
18/03:30pm 19.8 14.0 15.9 78 2.3 S 41 44 22 24 1014.5 1014.4 0.0
18/03:00pm 19.9 14.1 16.0 78 2.3 S 41 44 22 24 1014.4 1014.3 0.0
18/02:30pm 20.3 15.2 15.9 76 2.6 S 37 41 20 22 1014.7 1014.6 0.0
18/02:00pm 20.8 16.3 16.4 76 2.7 S 35 39 19 21 1014.9 1014.8 0.0
18/01:30pm 20.1 16.1 16.1 78 2.4 S 32 37 17 20 1015.2 1015.1 0.0
18/01:00pm 19.7 15.9 15.8 78 2.3 S 30 33 16 18 1015.5 1015.4 0.0
18/12:52pm 19.8 16.5 16.1 79 2.2 S 28 32 15 17 1015.5 1015.4 0.0
18/12:30pm 20.1 20.3 16.7 81 2.1 S 11 13 6 7 1015.7 1015.6 0.0
18/12:00pm 19.4 18.7 16.4 83 1.8 SW 15 17 8 9 1015.6 1015.5 0.0
18/11:30am 18.1 17.6 15.9 87 1.3 WSW 13 17 7 9 1015.6 1015.5 0.0
18/11:00am 17.7 17.2 16.0 90 1.0 W 13 17 7 9 1015.9 1015.8 0.0
18/10:30am 17.8 17.4 16.1 90 1.0 WSW 13 17 7 9 1015.5 1015.4 0.0
18/10:00am 17.4 13.9 15.4 88 1.2 SW 28 32 15 17 1015.4 1015.3 0.0
18/09:30am 17.8 13.9 15.6 87 1.3 SW 30 35 16 19 1015.2 1015.1 0.0
18/09:00am 17.7 13.5 15.7 88 1.2 SW 32 37 17 20 1014.9 1014.8 0.2
18/08:30am 17.7 13.5 15.7 88 1.2 SW 32 35 17 19 1014.6 1014.5 0.2
18/08:00am 17.9 14.1 15.7 87 1.3 SW 30 35 16 19 1014.3 1014.2 0.2
18/07:30am 17.9 14.8 15.7 87 1.3 SSW 26 32 14 17 1014.1 1014.0 0.2
18/07:00am 17.8 13.9 15.6 87 1.3 SSW 30 35 16 19 1013.6 1013.5 0.2
18/06:30am 17.9 14.5 15.7 87 1.3 SSW 28 32 15 17 1013.3 1013.2 0.2
18/06:00am 17.9 14.1 15.7 87 1.3 SW 30 35 16 19 1013.2 1013.1 0.2
18/05:30am 18.0 13.7 15.8 87 1.3 SW 33 37 18 20 1013.0 1012.9 0.2
18/05:00am 18.0 13.6 15.6 86 1.4 SSW 33 37 18 20 1012.6 1012.5 0.2
18/04:30am 18.2 14.8 15.8 86 1.4 SSW 28 33 15 18 1012.6 1012.5 0.2
18/04:00am 18.3 15.3 15.9 86 1.4 SSW 26 30 14 16 1012.5 1012.4 0.2
18/03:30am 18.3 15.7 15.9 86 1.4 SSW 24 28 13 15 1012.6 1012.5 0.2
18/03:00am 18.4 15.7 15.6 84 1.7 SSW 24 28 13 15 1012.8 1012.7 0.2
18/02:30am 18.4 15.7 15.6 84 1.7 SSW 24 30 13 16 1012.8 1012.7 0.2
18/02:00am 18.4 15.4 15.8 85 1.5 SSW 26 30 14 16 1012.7 1012.6 0.2
18/01:30am 18.4 15.8 15.8 85 1.5 SSW 24 28 13 15 1012.7 1012.6 0.2
18/01:00am 18.6 16.9 15.7 83 1.7 SSW 19 24 10 13 1012.6 1012.5 0.2
18/12:30am 18.6 16.5 15.3 81 1.9 WSW 20 22 11 12 1012.7 1012.6 0.2
18/12:00am 18.8 16.3 15.1 79 2.2 WSW 22 26 12 14 1012.7 1012.6 0.2
 
Date/Time
EDT
Temp
°C
App
Temp
°C
Dew
Point
°C
Rel
Hum
%
Delta-T
°C
Wind Press
QNH
hPa
Press
MSL
hPa
Rain since
9am
mm
Dir  Spd
km/h
Gust
km/h
Spd
kts
Gust
kts
17/11:30pm 18.9 16.9 15.6 81 1.9 WSW 20 26 11 14 1012.6 1012.5 0.2
17/11:00pm 18.7 17.5 16.1 85 1.5 WSW 17 20 9 11 1012.5 1012.4 0.2
17/10:30pm 18.9 16.5 16.5 86 1.4 WSW 24 28 13 15 1012.1 1012.0 0.2
17/10:00pm 18.8 16.6 16.8 88 1.2 WSW 24 30 13 16 1012.0 1011.9 0.2
17/09:30pm 18.9 16.4 17.0 89 1.1 WSW 26 30 14 16 1011.8 1011.7 0.2
17/09:00pm 18.7 17.7 17.5 93 0.7 SW 19 22 10 12 1011.5 1011.4 0.2
17/08:30pm 18.6 16.0 17.8 95 0.5 SW 28 32 15 17 1011.3 1011.2 0.2
17/08:00pm 18.4 14.5 17.8 96 0.4 SSW 35 43 19 23 1010.7 1010.6 0.2
17/07:30pm 18.4 15.4 17.8 96 0.4 S 30 33 16 18 1010.2 1010.1 0.2
17/07:00pm 18.8 16.3 18.1 96 0.4 SSW 28 32 15 17 1010.0 1009.9 0.2
17/06:30pm 19.2 16.2 18.7 97 0.3 SSW 32 35 17 19 1009.7 1009.6 0.0
17/06:00pm 19.0 16.2 18.3 96 0.4 S 30 37 16 20 1009.5 1009.4 0.0
17/05:30pm 19.4 16.7 18.4 94 0.6 S 30 33 16 18 1009.3 1009.2 0.0
17/05:00pm 19.5 16.8 18.5 94 0.6 S 30 35 16 19 1009.1 1009.0 0.0
17/04:30pm 19.8 17.2 18.6 93 0.7 S 30 35 16 19 1008.6 1008.5 0.0
17/04:00pm 20.3 19.0 19.0 92 0.8 S 24 28 13 15 1008.5 1008.4 0.0
17/03:30pm 20.4 19.4 18.9 91 0.9 SSE 22 28 12 15 1008.6 1008.5 0.0
17/03:00pm 21.4 21.5 20.0 92 0.9 SSE 19 28 10 15 1008.9 1008.8 0.0
17/02:30pm 21.8 24.0 21.1 96 0.5 N 11 15 6 8 1008.5 1008.4 0.0
17/02:00pm 21.0 21.7 20.5 97 0.3 N 17 22 9 12 1008.1 1008.0 0.0
17/01:30pm 20.1 19.2 19.8 98 0.2 N 24 26 13 14 1008.0 1007.9 0.0
17/01:00pm 19.3 18.3 18.8 97 0.3 N 22 24 12 13 1008.3 1008.2 0.0
17/12:30pm 20.1 19.2 19.8 98 0.2 N 24 26 13 14 1008.1 1008.0 0.0
17/12:00pm 19.9 18.1 19.6 98 0.2 N 28 30 15 16 1007.9 1007.8 0.0
17/11:30am 19.1 16.9 18.8 98 0.2 N 28 30 15 16 1007.7 1007.6 0.0
17/11:00am 19.2 17.8 18.9 98 0.2 N 24 26 13 14 1007.9 1007.8 0.0
17/10:30am 19.2 17.2 19.2 100 0.0 N 28 32 15 17 1007.8 1007.7 0.0
17/10:00am 18.8 16.6 18.8 100 0.0 N 28 32 15 17 1007.5 1007.4 0.0
17/09:30am 18.8 17.0 18.8 100 0.0 N 26 30 14 16 1007.4 1007.3 0.0
17/09:00am 18.4 16.1 18.4 100 0.0 N 28 32 15 17 1007.4 1007.3 0.0
17/08:30am 18.7 16.1 18.7 100 0.0 N 30 32 16 17 1007.5 1007.4 0.0
17/08:00am 18.9 16.0 18.9 100 0.0 N 32 35 17 19 1007.6 1007.5 0.0
17/07:30am 18.5 15.8 18.5 100 0.0 N 30 37 16 20 1007.5 1007.4 0.0
17/07:00am 18.0 15.9 18.0 100 0.0 N 26 30 14 16 1007.4 1007.3 0.0
17/06:30am 18.2 16.5 18.2 100 0.0 N 24 28 13 15 1006.7 1006.6 0.0
17/06:00am 18.1 16.8 18.1 100 0.0 N 22 28 12 15 1007.3 1007.2 0.0
17/05:30am 17.9 16.5 17.9 100 0.0 N 22 28 12 15 1007.3 1007.2 0.0
17/05:00am 18.2 16.5 18.2 100 0.0 N 24 30 13 16 1007.4 1007.3 0.0
17/04:30am 18.1 20.6 18.1 100 0.0 N 2 22 1 12 1007.8 1007.7 0.0
17/04:00am 18.4 17.6 18.4 100 0.0 N 20 24 11 13 1008.1 1008.0 0.0
17/03:30am 18.6 17.5 18.6 100 0.0 N 22 24 12 13 1008.1 1008.0 0.0
17/03:00am 18.6 17.1 18.6 100 0.0 N 24 26 13 14 1008.8 1008.7 0.0
17/02:30am 18.7 18.1 18.5 99 0.1 N 19 22 10 12 1009.2 1009.1 0.0
17/02:00am 18.8 18.6 18.6 99 0.1 N 17 20 9 11 1009.5 1009.4 0.0
17/01:30am 18.8 18.3 18.6 99 0.1 N 19 20 10 11 1009.8 1009.7 0.0
17/01:00am 19.0 18.3 18.7 98 0.2 N 20 22 11 12 1010.1 1010.0 0.0
17/12:30am 18.9 18.4 18.6 98 0.2 N 19 22 10 12 1009.9 1009.8 0.0
17/12:00am 19.1 18.4 18.6 97 0.3 N 20 24 11 13 1010.1 1010.0 0.0
 
Date/Time
EDT
Temp
°C
App
Temp
°C
Dew
Point
°C
Rel
Hum
%
Delta-T
°C
Wind Press
QNH
hPa
Press
MSL
hPa
Rain since
9am
mm
Dir  Spd
km/h
Gust
km/h
Spd
kts
Gust
kts
16/11:30pm 19.3 17.9 18.8 97 0.3 NNE 24 28 13 15 1010.0 1009.9 0.0
16/11:00pm 19.1 18.4 18.6 97 0.3 NNE 20 24 11 13 1010.6 1010.5 0.0
16/10:30pm 19.4 18.3 18.7 96 0.4 NNE 22 24 12 13 1010.4 1010.3 0.0
16/10:00pm 19.3 18.8 18.6 96 0.4 NNE 19 20 10 11 1010.7 1010.6 0.0
16/09:30pm 19.3 19.1 18.6 96 0.4 NNE 17 19 9 10 1010.6 1010.5 0.0
16/09:00pm 19.1 20.2 18.1 94 0.6 E 9 15 5 8 1010.3 1010.2 0.0
16/08:30pm 19.1 20.2 17.9 93 0.7 ESE 9 11 5 6 1010.1 1010.0 0.0
16/08:00pm 19.0 20.5 17.5 91 0.9 ESE 6 9 3 5 1009.7 1009.6 0.0
16/07:30pm 19.6 21.2 17.9 90 1.0 ESE 6 7 3 4 1009.7 1009.6 0.0
16/07:00pm 19.9 22.0 18.0 89 1.2 ESE 4 6 2 3 1009.4 1009.3 0.0
16/06:30pm 20.2 23.1 18.1 88 1.3 CALM 0 0 0 0 1009.4 1009.3 0.0
16/06:00pm 20.8 23.8 18.4 86 1.5 CALM 0 0 0 0 1009.2 1009.1 0.0
16/05:30pm 21.1 24.2 18.7 86 1.5 CALM 0 0 0 0 1009.5 1009.4 0.0
16/05:00pm 21.3 24.6 19.0 87 1.5 CALM 0 2 0 1 1009.5 1009.4 0.0
16/04:30pm 21.6 24.9 19.0 85 1.6 CALM 0 4 0 2 1009.8 1009.7 0.0
16/04:00pm 21.5 23.5 18.7 84 1.8 ESE 6 6 3 3 1010.1 1010.0 0.0
16/03:30pm 21.6 23.4 18.4 82 2.0 ESE 6 9 3 5 1009.9 1009.8 0.0
16/03:00pm 22.6 23.8 19.0 80 2.3 ESE 11 13 6 7 1009.7 1009.6 0.0
16/02:30pm 22.5 25.8 19.1 81 2.2 CALM 0 0 0 0 1010.0 1009.9 0.0
16/02:00pm 21.9 23.0 18.9 83 1.9 SE 11 15 6 8 1010.1 1010.0 0.0
16/01:30pm 21.2 22.0 18.2 83 1.9 SE 11 11 6 6 1010.3 1010.2 0.0
16/01:00pm 21.8 22.5 18.8 83 1.9 S 13 13 7 7 1010.2 1010.1 0.0
16/12:30pm 21.2 21.0 18.6 85 1.6 S 17 19 9 10 1010.3 1010.2 0.0
16/12:00pm 21.1 20.6 18.7 86 1.5 S 19 20 10 11 1010.1 1010.0 0.0
16/11:30am 20.6 20.7 18.4 87 1.4 S 15 17 8 9 1010.1 1010.0 0.0
16/11:00am 20.5 21.7 18.3 87 1.4 S 9 11 5 6 1010.2 1010.1 0.0
16/10:30am 20.2 21.9 18.1 88 1.3 SSW 6 7 3 4 1010.0 1009.9 0.0
16/10:00am 20.2 23.1 18.1 88 1.3 CALM 0 0 0 0 1010.0 1009.9 0.0
16/09:30am 20.4 21.6 18.3 88 1.3 SSW 9 13 5 7 1009.8 1009.7 0.0
16/09:00am 19.8 20.7 18.3 91 0.9 SSW 11 13 6 7 1009.9 1009.8 0.2
16/08:30am 19.0 19.2 17.7 92 0.8 SSW 13 13 7 7 1009.9 1009.8 0.2
16/08:00am 18.9 19.9 17.7 93 0.7 S 9 11 5 6 1009.4 1009.3 0.2
16/07:30am 18.3 17.9 17.1 93 0.7 S 15 19 8 10 1009.2 1009.1 0.2
16/07:00am 18.3 17.6 17.3 94 0.6 SSW 17 20 9 11 1008.9 1008.8 0.2
16/06:30am 18.0 16.3 17.2 95 0.5 S 22 24 12 13 1008.1 1008.0 0.2
16/06:00am 17.9 16.2 17.1 95 0.5 SSW 22 24 12 13 1007.8 1007.7 0.2
16/05:30am 17.9 16.2 17.1 95 0.5 S 22 24 12 13 1007.3 1007.2 0.2
16/05:00am 17.9 15.4 17.1 95 0.5 S 26 30 14 16 1007.1 1007.0 0.2
16/04:30am 18.0 15.9 17.2 95 0.5 S 24 28 13 15 1006.6 1006.5 0.2
16/04:00am 18.3 17.0 17.3 94 0.6 SSW 20 28 11 15 1006.4 1006.3 0.2
16/03:30am 18.4 16.0 17.4 94 0.6 SSW 26 30 14 16 1006.3 1006.2 0.2
16/03:00am 18.3 19.7 17.3 94 0.6 SSW 6 17 3 9 1006.5 1006.4 0.2
16/02:30am 18.2 20.6 17.0 93 0.7 CALM 0 6 0 3 1006.6 1006.5 0.2
16/02:00am 18.8 20.4 17.8 94 0.6 SSW 6 7 3 4 1006.6 1006.5 0.2
16/01:30am 18.6 19.9 17.6 94 0.6 SSW 7 11 4 6 1007.1 1007.0 0.2
16/01:00am 18.6 19.8 17.4 93 0.7 SSW 7 9 4 5 1007.0 1006.9 0.2
16/12:30am 19.1 19.7 17.8 92 0.8 SSW 11 13 6 7 1007.2 1007.1 0.2
16/12:00am 19.7 19.5 18.4 92 0.8 SW 17 22 9 12 1007.1 1007.0 0.2
 
Date/Time
EDT
Temp
°C
App
Temp
°C
Dew
Point
°C
Rel
Hum
%
Delta-T
°C
Wind Press
QNH
hPa
Press
MSL
hPa
Rain since
9am
mm
Dir  Spd
km/h
Gust
km/h
Spd
kts
Gust
kts
15/11:30pm 19.4 20.8 18.7 96 0.4 SW 9 30 5 16 1006.8 1006.7 0.2
15/11:00pm 18.8 18.8 18.1 96 0.4 S 15 15 8 8 1006.9 1006.8 0.2
15/10:30pm 18.8 18.0 18.1 96 0.4 S 19 22 10 12 1006.7 1006.6 0.2
15/10:00pm 18.8 18.0 18.0 95 0.5 S 19 22 10 12 1006.4 1006.3 0.2
15/09:30pm 18.9 18.0 18.1 95 0.5 S 20 26 11 14 1005.9 1005.8 0.2
15/09:00pm 19.1 17.0 18.1 94 0.6 S 26 32 14 17 1005.8 1005.7 0.2
15/08:30pm 19.1 17.0 18.1 94 0.6 S 26 32 14 17 1005.7 1005.6 0.2
15/08:00pm 19.6 15.9 18.3 92 0.8 S 35 41 19 22 1004.5 1004.4 0.2
15/07:30pm 19.9 16.1 18.2 90 1.1 S 35 41 19 22 1002.8 1002.7 0.2
15/07:00pm 20.1 15.9 18.1 88 1.2 S 37 43 20 23 1003.4 1003.3 0.2
15/06:46pm 20.6 16.6 18.4 87 1.4 S 37 41 20 22 1005.5 1005.4 0.2
15/06:30pm 20.9 16.4 18.3 85 1.6 S 39 44 21 24 1003.5 1003.4 0.2
15/06:23pm 21.4 19.2 18.6 84 1.8 S 28 43 15 23 1003.3 1003.2 0.2
15/06:00pm 23.1 23.4 19.7 81 2.2 SSW 17 20 9 11 1003.5 1003.4 0.2
15/05:30pm 23.7 25.5 20.4 82 2.1 S 11 15 6 8 1003.4 1003.3 0.2
15/05:00pm 22.1 23.7 20.0 88 1.4 E 11 17 6 9 1003.2 1003.1 0.2
15/04:30pm 20.8 22.3 18.9 89 1.2 ENE 9 13 5 7 1002.9 1002.8 0.2
15/04:00pm 21.5 23.8 18.5 83 1.9 NNE 4 7 2 4 1003.3 1003.2 0.2

Other formats

Comma delimited format used in spreadsheet applications
http://www.bom.gov.au/fwo/IDN60801/IDN60801.94934.axf

JavaScript Object Notation format (JSON) in row-major order
http://www.bom.gov.au/fwo/IDN60801/IDN60801.94934.json

Data quality

Most of these data are generated automatically and are frequently updated. Quality checks on data are not normally performed. It is possible for incorrect values to appear. Refer to information at About Latest Weather Observations and please check the disclaimer before using these data.